KAID/AID METAR and TAF weather

Enter ICAO airport designator
Station Type Date Time Source
KAID METAR 2020/09/18 13:35 UTC NOAA

KAID 181335Z AUTO 03008KT 10SM CLR 11/06 A3027 RMK AO2 T01080061


Station Type Date Time Source
KAID Decoded METAR 2020/09/18 13:35 UTC NOAA

Anderson Municipal, IN, United States (KAID) 40-07N 085-37W
Sep 18, 2020 - 09:35 AM EDT / 2020.09.18 1335 UTC
Wind: from the NNE (030 degrees) at 9 MPH (8 KT):0
Visibility: 10 mile(s):0
Sky conditions: clear
Temperature: 51.4 F (10.8 C)
Dew Point: 43.0 F (6.1 C)
Relative Humidity: 72%
Pressure (altimeter): 30.27 in. Hg (1025 hPa)
ob: KAID 181335Z AUTO 03008KT 10SM CLR 11/06 A3027 RMK AO2 T01080061
cycle: 13

Station Type Date Time Source
KAID TAF UTC NOAA

Error!

Example: see airport list